createdAt,value
2023-01-29T00:03:15.416Z,5.68
2023-01-29T00:08:16.331Z,5.75
2023-01-29T00:13:17.503Z,6.68
2023-01-29T00:18:18.225Z,6.00
2023-01-29T00:23:19.114Z,5.75
2023-01-29T00:28:19.889Z,6.37
2023-01-29T00:33:20.789Z,5.47
2023-01-29T00:38:21.648Z,6.00
2023-01-29T00:43:41.367Z,5.80
2023-01-29T00:48:42.157Z,5.82
2023-01-29T00:53:44.791Z,5.72
2023-01-29T00:58:45.528Z,6.20
2023-01-29T01:03:46.307Z,6.18
2023-01-29T01:09:05.658Z,6.55
2023-01-29T01:14:06.495Z,6.18
2023-01-29T01:19:07.440Z,5.82
2023-01-29T01:24:08.311Z,6.50
2023-01-29T01:29:09.214Z,6.65
2023-01-29T01:34:10.106Z,7.62
2023-01-29T01:39:10.986Z,6.57
2023-01-29T01:44:49.650Z,7.05
2023-01-29T01:49:52.524Z,6.80
2023-01-29T01:54:53.545Z,7.93
2023-01-29T02:00:09.200Z,6.87
2023-01-29T02:05:32.611Z,6.90
2023-01-29T02:10:42.536Z,7.03
2023-01-29T02:15:47.898Z,6.53
2023-01-29T02:21:49.943Z,6.20
2023-01-29T02:27:31.145Z,7.00
2023-01-29T02:32:53.800Z,7.63
2023-01-29T02:38:08.692Z,6.97
2023-01-29T02:43:28.230Z,7.15
2023-01-29T02:48:40.970Z,7.25
2023-01-29T02:54:10.217Z,7.18
2023-01-29T02:59:19.090Z,7.82
2023-01-29T03:04:26.786Z,6.80
2023-01-29T03:09:34.159Z,8.35
2023-01-29T03:14:57.522Z,8.00
2023-01-29T03:20:00.097Z,8.60
2023-01-29T03:25:23.044Z,7.28
2023-01-29T03:36:16.020Z,9.90
2023-01-29T03:41:33.927Z,8.93
2023-01-29T03:46:41.778Z,8.57
2023-01-29T03:52:14.897Z,8.50
2023-01-29T03:57:41.970Z,8.43
2023-01-29T04:04:32.249Z,7.97
2023-01-29T04:09:42.345Z,7.87
2023-01-29T04:14:46.151Z,7.60
2023-01-29T04:19:47.733Z,8.70
2023-01-29T04:24:50.390Z,7.10
2023-01-29T04:30:35.477Z,7.47
2023-01-29T04:35:52.456Z,8.50
2023-01-29T04:41:21.163Z,7.50
2023-01-29T04:47:17.676Z,8.15
2023-01-29T04:52:28.770Z,8.60
2023-01-29T05:01:03.989Z,7.57
2023-01-29T05:06:07.340Z,7.25
2023-01-29T05:11:08.866Z,7.00
2023-01-29T05:16:16.212Z,7.93
2023-01-29T05:21:18.917Z,8.10
2023-01-29T05:26:39.251Z,8.23
2023-01-29T05:31:43.804Z,8.98
2023-01-29T05:36:44.873Z,8.75
2023-01-29T05:41:45.762Z,10.02
2023-01-29T05:46:46.574Z,10.07
2023-01-29T05:51:47.359Z,9.30
2023-01-29T05:56:48.149Z,8.30
2023-01-29T06:01:48.993Z,8.13
2023-01-29T06:06:50.020Z,7.87
2023-01-29T06:11:50.786Z,9.27
2023-01-29T06:16:51.553Z,18.55
2023-01-29T06:21:52.291Z,18.90
2023-01-29T06:26:53.096Z,13.80
2023-01-29T06:31:54.215Z,10.80
2023-01-29T06:36:55.061Z,12.10
2023-01-29T06:41:55.904Z,9.02
2023-01-29T06:46:56.664Z,10.10
2023-01-29T06:51:57.445Z,9.98
2023-01-29T06:56:58.285Z,8.88
2023-01-29T07:01:59.113Z,12.27
2023-01-29T07:06:59.930Z,9.32
2023-01-29T07:12:01.014Z,10.90
2023-01-29T07:17:02.144Z,10.25
2023-01-29T07:22:03.240Z,9.93
2023-01-29T07:27:05.409Z,9.35
2023-01-29T07:32:07.250Z,8.13
2023-01-29T07:37:08.103Z,8.88
2023-01-29T07:42:08.859Z,20.60
2023-01-29T07:47:09.656Z,14.02
2023-01-29T07:52:10.409Z,9.15
2023-01-29T07:57:12.094Z,9.57
2023-01-29T08:02:13.145Z,10.13
2023-01-29T08:07:14.286Z,11.05
2023-01-29T08:12:15.436Z,11.00
2023-01-29T08:17:16.256Z,10.82
2023-01-29T08:22:17.155Z,10.88
2023-01-29T08:27:17.978Z,9.98
2023-01-29T08:32:18.936Z,11.20
2023-01-29T08:37:19.755Z,11.20
2023-01-29T08:42:20.515Z,9.68
2023-01-29T08:47:21.312Z,9.25
2023-01-29T08:52:22.051Z,8.57
2023-01-29T08:57:22.871Z,10.90
2023-01-29T09:02:23.812Z,8.77
2023-01-29T09:07:24.612Z,10.57
2023-01-29T09:12:25.551Z,10.40
2023-01-29T09:17:26.335Z,11.00
2023-01-29T09:22:27.594Z,11.40
2023-01-29T09:27:28.507Z,12.15
2023-01-29T09:38:03.128Z,12.95
2023-01-29T09:43:13.073Z,12.10
2023-01-29T09:48:14.025Z,12.25
2023-01-29T09:53:48.896Z,13.20
2023-01-29T09:58:49.844Z,13.62
2023-01-29T10:04:17.456Z,12.77
2023-01-29T10:10:13.428Z,12.27
2023-01-29T10:16:12.595Z,28.52
2023-01-29T10:21:32.050Z,12.02
2023-01-29T10:26:35.237Z,19.30
2023-01-29T10:31:39.831Z,12.05
2023-01-29T10:36:46.541Z,11.63
2023-01-29T10:42:43.336Z,14.02
2023-01-29T10:48:06.619Z,10.25
2023-01-29T10:53:35.426Z,10.10
2023-01-29T11:02:54.314Z,9.32
2023-01-29T11:08:19.120Z,9.93
2023-01-29T11:13:23.576Z,9.07
2023-01-29T11:18:24.309Z,8.55
2023-01-29T11:23:31.742Z,8.43
2023-01-29T11:28:47.538Z,6.75
2023-01-29T11:33:51.630Z,5.75
2023-01-29T11:39:14.668Z,6.90
2023-01-29T11:44:30.116Z,6.75
2023-01-29T11:49:33.989Z,6.70
2023-01-29T11:54:45.880Z,6.05
2023-01-29T11:59:50.981Z,6.57
2023-01-29T12:04:54.739Z,8.63
2023-01-29T12:09:57.928Z,6.47
2023-01-29T12:20:14.276Z,7.03
2023-01-29T12:26:43.879Z,6.45
2023-01-29T12:31:58.206Z,6.28
2023-01-29T12:37:12.941Z,7.57
2023-01-29T12:42:22.277Z,6.60
2023-01-29T12:47:30.736Z,5.95
2023-01-29T12:52:46.563Z,6.60
2023-01-29T12:57:58.148Z,6.32
2023-01-29T13:03:12.730Z,7.62
2023-01-29T13:09:36.969Z,7.10
2023-01-29T13:14:47.173Z,6.62
2023-01-29T13:19:54.900Z,6.15
2023-01-29T13:25:04.638Z,7.90
2023-01-29T13:30:07.475Z,9.13
2023-01-29T13:35:16.658Z,8.27
2023-01-29T13:40:24.932Z,10.68
2023-01-29T13:45:42.664Z,9.60
2023-01-29T13:50:45.709Z,8.50
2023-01-29T13:55:46.475Z,7.43
2023-01-29T14:00:47.945Z,7.90
2023-01-29T14:05:59.869Z,8.15
2023-01-29T14:12:54.736Z,7.35
2023-01-29T14:18:20.337Z,7.15
2023-01-29T14:24:57.046Z,7.00
2023-01-29T14:30:01.800Z,7.40
2023-01-29T14:35:16.011Z,6.65
2023-01-29T14:40:23.387Z,6.97
2023-01-29T14:45:49.356Z,6.95
2023-01-29T14:50:52.674Z,7.15
2023-01-29T15:01:38.356Z,7.70
2023-01-29T15:14:43.718Z,7.85
2023-01-29T15:19:48.488Z,7.60
2023-01-29T15:25:07.179Z,7.62
2023-01-29T15:30:16.348Z,7.32
2023-01-29T15:35:30.262Z,8.15
2023-01-29T15:40:31.533Z,8.07
2023-01-29T15:45:34.335Z,7.87
2023-01-29T15:50:40.251Z,7.55
2023-01-29T15:55:41.745Z,6.53
2023-01-29T16:00:52.884Z,6.75
2023-01-29T16:05:54.599Z,6.78
2023-01-29T16:10:58.898Z,6.47
2023-01-29T16:16:02.326Z,6.43
2023-01-29T16:21:12.068Z,7.28
2023-01-29T16:26:24.170Z,6.93
2023-01-29T16:31:28.344Z,7.03
2023-01-29T16:36:29.322Z,6.60
2023-01-29T16:41:36.069Z,6.87
2023-01-29T16:46:45.360Z,7.60
2023-01-29T16:51:46.362Z,9.35
2023-01-29T16:56:49.132Z,11.88
2023-01-29T17:01:50.063Z,8.68
2023-01-29T17:06:56.985Z,8.05
2023-01-29T17:12:02.962Z,11.82
2023-01-29T17:17:15.447Z,11.70
2023-01-29T17:22:16.305Z,10.20
2023-01-29T17:27:21.909Z,8.82
2023-01-29T17:32:24.305Z,9.35
2023-01-29T17:37:25.165Z,9.57
2023-01-29T17:42:27.995Z,8.90
2023-01-29T17:47:28.785Z,12.48
2023-01-29T17:52:31.379Z,18.15
2023-01-29T17:57:32.834Z,14.18
2023-01-29T18:02:33.704Z,14.57
2023-01-29T18:07:36.603Z,13.90
2023-01-29T18:12:37.331Z,15.55
2023-01-29T18:17:38.891Z,17.33
2023-01-29T18:22:39.698Z,15.88
2023-01-29T18:27:40.724Z,16.05
2023-01-29T18:32:41.706Z,20.30
2023-01-29T18:37:43.031Z,19.40
2023-01-29T18:42:44.416Z,18.87
2023-01-29T18:47:45.478Z,21.35
2023-01-29T18:52:46.328Z,27.60
2023-01-29T18:58:27.466Z,26.75
2023-01-29T19:03:36.617Z,27.40
2023-01-29T19:08:38.622Z,27.15
2023-01-29T19:13:40.062Z,26.20
2023-01-29T19:18:41.198Z,24.35
2023-01-29T19:23:42.908Z,25.33
2023-01-29T19:28:44.187Z,26.05
2023-01-29T19:33:45.018Z,26.83
2023-01-29T19:38:45.942Z,26.30
2023-01-29T19:43:47.447Z,29.67
2023-01-29T19:48:48.559Z,27.73
2023-01-29T19:53:49.369Z,27.95
2023-01-29T19:58:56.850Z,26.17
2023-01-29T20:03:57.910Z,24.42
2023-01-29T20:09:01.395Z,25.10
2023-01-29T20:14:02.161Z,27.20
2023-01-29T20:19:13.218Z,24.42
2023-01-29T20:24:15.468Z,22.92
2023-01-29T20:29:16.335Z,22.70
2023-01-29T20:34:17.113Z,24.15
2023-01-29T20:39:18.025Z,23.00
2023-01-29T20:44:18.764Z,23.12
2023-01-29T20:49:20.986Z,22.45
2023-01-29T20:54:21.882Z,23.67
2023-01-29T20:59:23.294Z,23.17
2023-01-29T21:04:24.149Z,23.48
2023-01-29T21:09:24.915Z,22.62
2023-01-29T21:14:25.660Z,21.05
2023-01-29T21:19:27.023Z,20.67
2023-01-29T21:24:27.904Z,25.20
2023-01-29T21:29:28.798Z,17.10
2023-01-29T21:34:29.548Z,17.62
2023-01-29T21:39:30.435Z,19.70
2023-01-29T21:44:33.453Z,20.17
2023-01-29T21:54:35.086Z,18.50
2023-01-29T21:59:36.622Z,17.40
2023-01-29T22:04:37.349Z,16.75
2023-01-29T22:09:38.237Z,16.12
2023-01-29T22:14:41.035Z,16.25
2023-01-29T22:19:42.741Z,16.87
2023-01-29T22:24:45.727Z,16.60
2023-01-29T22:34:47.265Z,15.73
2023-01-29T22:39:47.993Z,15.38
2023-01-29T22:44:48.851Z,16.15
2023-01-29T22:49:51.560Z,15.35
2023-01-29T22:54:52.638Z,16.80
2023-01-29T22:59:53.758Z,17.80
2023-01-29T23:04:54.526Z,16.35
2023-01-29T23:09:55.315Z,18.00
2023-01-29T23:14:56.085Z,18.05
2023-01-29T23:19:56.868Z,17.87
2023-01-29T23:24:57.654Z,18.80
2023-01-29T23:29:58.495Z,19.05
2023-01-29T23:34:59.293Z,16.25
2023-01-29T23:40:00.138Z,13.90
2023-01-29T23:45:00.834Z,15.48
2023-01-29T23:50:01.810Z,14.18
2023-01-29T23:55:02.822Z,14.50
